Nearby METAR Reports

 

EDNY - Friedrichshafen, Germany
Distance from station: ONO 32km
aktuell: 13.07.2020 18:20
klar
klar
 Wind von NNO
Wind: NNO 11 km/h
Temperatur: 24°C
Taupunkt: 9°C
Luftfeuchte: 39%
Luftdruck: 1019 hPa
Zusammenfassung: klar
Visibility: greater than 10 km
2020/07/13 16:20 EDNY 131620Z 02006KT CAVOK 24/09 Q1019
LSZR - Rheineck/Altenrh, Switzerland
Distance from station: OSO 37km
aktuell: 13.07.2020 18:20
klar
klar
 Wind von WNW
Wind: WNW 11 km/h
Temperatur: 23°C
Taupunkt: 11°C
Luftfeuchte: 47%
Luftdruck: 1019 hPa
Zusammenfassung: klar
Visibility: greater than 10 km
2020/07/13 16:20 LSZR 131620Z 29006KT CAVOK 23/11 Q1019 NOSIG RMK M
LSMD - Dubendorf, Switzerland
Distance from station: SW 40km
aktuell: 13.07.2020 18:20
klar
klar
 Wind von varies
Wind: varies 4 km/h
Temperatur: 24°C
Taupunkt: 10°C
Luftfeuchte: 41%
Luftdruck: 1019 hPa
Clouds: klar
Visibility: 10 km
2020/07/13 16:20 LSMD 131620Z AUTO VRB02KT 9999NDV NCD 24/10 Q1019 RMK
 
LSZH - Zurich-Kloten (a, Switzerland
Distance from station: WSW 44km
aktuell: 13.07.2020 18:20
klar
klar
 Wind von O
Wind: O 9 km/h
Temperatur: 24°C
Taupunkt: 6°C
Luftfeuchte: 31%
Luftdruck: 1019 hPa
Zusammenfassung: klar
Visibility: greater than 10 km
2020/07/13 16:20 LSZH 131620Z 08005KT 030V120 CAVOK 24/06 Q1019 NOSIG
LOIH - Hohenems-Dornbir, Austria
Distance from station: OSO 51km
aktuell: 31.10.2016 17:00
NOT Current
geschlossene Wolkendecke
geschlossene Wolkendecke
 Wind von calm
Wind: Windstill
Temperatur: 10°C
Taupunkt: 9°C
Luftfeuchte: 94%
Luftdruck: 1026 hPa
Clouds: geschlossene Wolkendecke
Cloud details: geschlossene Wolkendecke 305 m
2016/10/31 16:00 LOIH 311600Z 00000KT 10KM OVC010ST 10/09 Q1026 RMK OVC
LSME - Emmen, Switzerland
Distance from station: SW 82km
aktuell: 13.07.2020 18:20
klar
klar
 Wind von varies
Wind: varies 4 km/h
Temperatur: 24°C
Taupunkt: 9°C
Luftfeuchte: 39%
Luftdruck: 1019 hPa
Clouds: klar
Visibility: 10 km
2020/07/13 16:20 LSME 131620Z AUTO VRB02KT 9999NDV NCD 24/09 Q1019 RMK
 
LSZC - Buochs, Switzerland
Distance from station: SW 89km
aktuell: 13.07.2020 18:20
klar
klar
 Wind von varies
Wind: varies 4 km/h
Temperatur: 23°C
Taupunkt: 11°C
Luftfeuchte: 47%
Luftdruck: 1019 hPa
Clouds: klar
Visibility: 10 km
2020/07/13 16:20 LSZC 131620Z AUTO VRB02KT 9999 NCD 23/11 Q1019
ETHL - Laupheim (ger-Ar, Germany
Distance from station: NO 92km
aktuell: 13.07.2020 18:20
stark bewölkt
stark bewölkt
 Wind von ONO
Wind: ONO 11 km/h
Temperatur: 22°C
Taupunkt: 4°C
Luftfeuchte: 31%
Luftdruck: 1019 hPa
Clouds: stark bewölkt
Visibility: 10 km
Cloud details: Few Clouds 1829 m
stark bewölkt 7620 m
2020/07/13 16:20 ETHL 131620Z 06006KT 9999 FEW060 BKN250 22/04 Q1019 BLU+
EDJA - Memmingen Allgau, Germany
Distance from station: ONO 95km
aktuell: 13.07.2020 18:20
klar
klar
 Wind von ONO
Wind: ONO 13 km/h
Temperatur: 21°C
Taupunkt: 8°C
Luftfeuchte: 43%
Luftdruck: 1020 hPa
Zusammenfassung: klar
Visibility: greater than 10 km
2020/07/13 16:20 EDJA 131620Z 06007KT 030V090 CAVOK 21/08 Q1020
 
LSMA - Alpnach, Switzerland
Distance from station: SW 95km
aktuell: 13.07.2020 18:20
teilweise bewölkt
teilweise bewölkt
 Wind von ONO
Wind: ONO 15 km/h
Temperatur: 24°C
Taupunkt: 13°C
Luftfeuchte: 50%
Luftdruck: 1019 hPa
Clouds: teilweise bewölkt
Visibility: 10 km
Cloud details: teilweise bewölkt 2195 m
teilweise bewölkt 2530 m
2020/07/13 16:20 LSMA 131620Z AUTO 06008KT 020V080 9999NDV SCT072 SCT083 24/13 Q1019 RMK